createdAt,value
2023-02-11T00:01:19.192Z,21.33
2023-02-11T00:03:46.838Z,21.50
2023-02-11T00:06:14.056Z,22.45
2023-02-11T00:08:41.540Z,22.83
2023-02-11T00:11:17.030Z,21.08
2023-02-11T00:13:45.100Z,23.17
2023-02-11T00:16:20.648Z,22.33
2023-02-11T00:18:48.682Z,21.85
2023-02-11T00:21:20.033Z,22.80
2023-02-11T00:23:48.146Z,23.25
2023-02-11T00:26:21.377Z,22.67
2023-02-11T00:28:50.347Z,23.10
2023-02-11T00:31:19.302Z,22.98
2023-02-11T00:33:47.082Z,23.17
2023-02-11T00:36:25.937Z,24.42
2023-02-11T00:38:55.101Z,27.60
2023-02-11T00:41:22.582Z,25.50
2023-02-11T00:43:50.947Z,25.70
2023-02-11T00:46:19.756Z,24.20
2023-02-11T00:48:47.136Z,24.35
2023-02-11T00:51:14.200Z,25.67
2023-02-11T00:53:41.826Z,24.88
2023-02-11T00:56:09.316Z,23.60
2023-02-11T00:58:37.400Z,24.95
2023-02-11T01:01:05.254Z,25.35
2023-02-11T01:03:33.039Z,26.77
2023-02-11T01:06:00.243Z,26.33
2023-02-11T01:08:27.899Z,25.90
2023-02-11T01:11:00.634Z,26.35
2023-02-11T01:13:29.175Z,27.92
2023-02-11T01:15:56.925Z,27.75
2023-02-11T01:18:25.109Z,26.70
2023-02-11T01:20:53.067Z,26.40
2023-02-11T01:23:21.049Z,25.52
2023-02-11T01:25:48.590Z,25.90
2023-02-11T01:28:21.454Z,25.02
2023-02-11T01:30:48.777Z,26.92
2023-02-11T01:33:16.236Z,28.95
2023-02-11T01:35:44.076Z,26.35
2023-02-11T01:38:17.421Z,26.98
2023-02-11T01:40:57.542Z,27.02
2023-02-11T01:43:26.578Z,27.00
2023-02-11T01:46:14.233Z,28.45
2023-02-11T01:48:45.576Z,25.40
2023-02-11T01:51:25.124Z,25.38
2023-02-11T01:54:12.680Z,24.10
2023-02-11T01:57:10.729Z,25.63
2023-02-11T01:59:43.829Z,26.75
2023-02-11T02:02:13.764Z,25.95
2023-02-11T02:05:11.788Z,26.95
2023-02-11T02:07:59.054Z,25.35
2023-02-11T02:10:28.540Z,24.50
2023-02-11T02:12:55.688Z,26.35
2023-02-11T02:15:33.356Z,24.70
2023-02-11T02:18:03.393Z,26.42
2023-02-11T02:21:07.920Z,24.67
2023-02-11T02:23:34.888Z,24.90
2023-02-11T02:26:52.842Z,26.40
2023-02-11T02:29:40.602Z,24.55
2023-02-11T02:32:19.699Z,25.33
2023-02-11T02:34:49.944Z,24.70
2023-02-11T02:38:16.189Z,24.30
2023-02-11T02:40:57.420Z,23.58
2023-02-11T02:43:27.295Z,23.70
2023-02-11T02:46:10.381Z,24.88
2023-02-11T02:48:37.772Z,23.83
2023-02-11T02:51:19.633Z,23.42
2023-02-11T02:54:08.934Z,23.27
2023-02-11T02:56:55.500Z,23.70
2023-02-11T02:59:41.373Z,21.80
2023-02-11T03:02:22.230Z,21.70
2023-02-11T03:04:59.064Z,22.73
2023-02-11T03:07:40.113Z,22.05
2023-02-11T03:10:17.215Z,20.77
2023-02-11T03:12:45.126Z,23.00
2023-02-11T03:15:13.722Z,21.00
2023-02-11T03:17:45.184Z,20.95
2023-02-11T03:20:16.220Z,20.55
2023-02-11T03:22:48.704Z,22.17
2023-02-11T03:25:16.644Z,19.80
2023-02-11T03:28:03.644Z,21.73
2023-02-11T03:30:40.449Z,21.70
2023-02-11T03:33:21.404Z,21.95
2023-02-11T03:36:07.753Z,20.85
2023-02-11T03:38:49.013Z,20.88
2023-02-11T03:41:21.100Z,22.73
2023-02-11T03:43:55.830Z,21.27
2023-02-11T03:46:30.731Z,21.05
2023-02-11T03:49:08.683Z,19.73
2023-02-11T03:51:37.996Z,22.02
2023-02-11T03:54:10.933Z,20.52
2023-02-11T03:56:49.883Z,21.40
2023-02-11T03:59:17.267Z,22.13
2023-02-11T04:01:44.582Z,22.55
2023-02-11T04:04:11.962Z,22.00
2023-02-11T04:06:39.637Z,22.02
2023-02-11T04:09:06.990Z,20.45
2023-02-11T04:11:34.466Z,18.17
2023-02-11T04:14:01.425Z,21.80
2023-02-11T04:16:30.874Z,22.10
2023-02-11T04:18:58.635Z,23.00
2023-02-11T04:21:26.093Z,22.50
2023-02-11T04:23:53.229Z,21.48
2023-02-11T04:26:20.613Z,25.38
2023-02-11T04:28:47.586Z,23.25
2023-02-11T04:31:14.805Z,23.05
2023-02-11T04:33:42.036Z,22.55
2023-02-11T04:36:09.529Z,22.10
2023-02-11T04:38:36.566Z,26.40
2023-02-11T04:41:04.244Z,28.98
2023-02-11T04:43:31.184Z,32.63
2023-02-11T04:45:58.984Z,25.40
2023-02-11T04:48:26.645Z,34.55
2023-02-11T04:50:53.972Z,30.10
2023-02-11T04:53:21.178Z,31.55
2023-02-11T04:55:52.264Z,30.20
2023-02-11T04:58:20.143Z,28.33
2023-02-11T05:00:47.869Z,30.13
2023-02-11T05:03:16.027Z,36.05
2023-02-11T05:05:44.139Z,31.95
2023-02-11T05:08:11.811Z,36.90
2023-02-11T05:10:39.802Z,32.22
2023-02-11T05:13:07.188Z,39.97
2023-02-11T05:15:34.535Z,32.97
2023-02-11T05:18:01.546Z,37.72
2023-02-11T05:20:28.974Z,29.73
2023-02-11T05:22:56.035Z,37.60
2023-02-11T05:25:23.459Z,39.88
2023-02-11T05:27:50.529Z,38.10
2023-02-11T05:30:18.132Z,35.00
2023-02-11T05:32:45.117Z,32.97
2023-02-11T05:35:12.687Z,32.65
2023-02-11T05:37:39.949Z,31.75
2023-02-11T05:40:07.780Z,31.20
2023-02-11T05:42:34.834Z,28.50
2023-02-11T05:45:02.199Z,26.55
2023-02-11T05:47:29.714Z,29.35
2023-02-11T05:49:57.496Z,30.48
2023-02-11T05:52:24.756Z,31.23
2023-02-11T05:54:52.298Z,29.88
2023-02-11T05:57:19.260Z,31.90
2023-02-11T05:59:47.040Z,32.65
2023-02-11T06:02:14.277Z,31.35
2023-02-11T06:04:41.797Z,31.30
2023-02-11T06:07:08.812Z,31.63
2023-02-11T06:09:37.576Z,33.47
2023-02-11T06:12:05.049Z,38.40
2023-02-11T06:14:35.782Z,35.78
2023-02-11T06:17:03.002Z,38.90
2023-02-11T06:19:31.182Z,43.03
2023-02-11T06:21:58.315Z,40.22
2023-02-11T06:24:51.018Z,37.25
2023-02-11T06:27:12.867Z,40.47
2023-02-11T06:29:40.153Z,37.58
2023-02-11T06:32:10.060Z,36.63
2023-02-11T06:34:43.449Z,36.53
2023-02-11T06:37:10.927Z,37.78
2023-02-11T06:39:38.365Z,44.88
2023-02-11T06:42:07.892Z,40.55
2023-02-11T06:44:35.489Z,48.38
2023-02-11T06:47:02.750Z,44.58
2023-02-11T06:49:30.129Z,39.17
2023-02-11T06:51:57.199Z,36.15
2023-02-11T06:54:24.555Z,35.00
2023-02-11T06:56:51.805Z,34.75
2023-02-11T06:59:23.187Z,33.40
2023-02-11T07:01:50.647Z,37.03
2023-02-11T07:04:18.143Z,34.85
2023-02-11T07:06:45.354Z,36.13
2023-02-11T07:09:12.921Z,35.10
2023-02-11T07:11:40.000Z,38.42
2023-02-11T07:14:11.029Z,34.50
2023-02-11T07:16:38.733Z,33.60
2023-02-11T07:19:06.513Z,36.70
2023-02-11T07:21:33.804Z,40.67
2023-02-11T07:24:01.613Z,43.88
2023-02-11T07:26:29.260Z,44.13
2023-02-11T07:28:58.541Z,49.47
2023-02-11T07:31:28.613Z,40.03
2023-02-11T07:33:59.178Z,37.20
2023-02-11T07:36:27.481Z,42.45
2023-02-11T07:38:54.879Z,48.30
2023-02-11T07:41:23.519Z,57.67
2023-02-11T07:43:53.090Z,48.20
2023-02-11T07:46:26.775Z,48.53
2023-02-11T07:48:54.999Z,41.45
2023-02-11T07:51:26.061Z,43.10
2023-02-11T07:53:55.403Z,42.17
2023-02-11T07:56:23.546Z,40.58
2023-02-11T07:58:54.444Z,39.67
2023-02-11T08:01:26.055Z,43.92
2023-02-11T08:03:54.130Z,46.70
2023-02-11T08:06:26.338Z,49.33
2023-02-11T08:08:53.870Z,38.78
2023-02-11T08:11:26.563Z,39.92
2023-02-11T08:13:58.164Z,38.10
2023-02-11T08:16:35.443Z,31.35
2023-02-11T08:19:06.653Z,31.75
2023-02-11T08:21:33.669Z,35.03
2023-02-11T08:24:02.478Z,33.63
2023-02-11T08:26:31.854Z,33.08
2023-02-11T08:28:59.561Z,36.50
2023-02-11T08:31:38.826Z,33.10
2023-02-11T08:34:06.597Z,35.90
2023-02-11T08:36:36.002Z,39.63
2023-02-11T08:39:18.745Z,36.08
2023-02-11T08:41:49.054Z,41.58
2023-02-11T08:44:17.721Z,37.13
2023-02-11T08:46:44.879Z,38.08
2023-02-11T08:49:12.204Z,33.25
2023-02-11T08:51:39.791Z,41.97
2023-02-11T08:54:09.580Z,44.30
2023-02-11T08:56:38.007Z,39.85
2023-02-11T08:59:06.208Z,34.85
2023-02-11T09:01:34.316Z,35.72
2023-02-11T09:04:01.649Z,33.35
2023-02-11T09:06:29.274Z,34.03
2023-02-11T09:08:57.783Z,36.85
2023-02-11T09:11:30.857Z,37.25
2023-02-11T09:13:58.780Z,35.45
2023-02-11T09:16:28.511Z,37.03
2023-02-11T09:19:00.598Z,42.42
2023-02-11T09:21:28.369Z,39.30
2023-02-11T09:23:56.350Z,35.65
2023-02-11T09:26:35.277Z,35.67
2023-02-11T09:29:03.858Z,39.80
2023-02-11T09:31:32.571Z,44.38
2023-02-11T09:34:02.630Z,45.97
2023-02-11T09:36:32.160Z,50.75
2023-02-11T09:39:04.501Z,51.67
2023-02-11T09:41:35.593Z,59.72
2023-02-11T09:44:07.459Z,44.40
2023-02-11T09:46:40.070Z,41.60
2023-02-11T09:49:15.710Z,39.63
2023-02-11T09:51:50.031Z,37.38
2023-02-11T09:54:31.671Z,38.13
2023-02-11T09:56:59.121Z,36.45
2023-02-11T09:59:26.526Z,37.03
2023-02-11T10:02:02.405Z,43.75
2023-02-11T10:05:05.930Z,35.15
2023-02-11T10:07:37.310Z,52.95
2023-02-11T10:10:24.665Z,46.70
2023-02-11T10:13:21.635Z,46.30
2023-02-11T10:16:10.020Z,38.58
2023-02-11T10:18:50.626Z,35.85
2023-02-11T10:21:46.630Z,31.45
2023-02-11T10:24:16.231Z,43.35
2023-02-11T10:26:45.814Z,44.97
2023-02-11T10:29:32.655Z,41.20
2023-02-11T10:32:03.193Z,43.10
2023-02-11T10:34:32.575Z,39.10
2023-02-11T10:37:00.369Z,47.10
2023-02-11T10:39:28.593Z,37.92
2023-02-11T10:42:05.290Z,41.85
2023-02-11T10:44:37.459Z,38.83
2023-02-11T10:47:20.801Z,39.72
2023-02-11T10:49:49.046Z,37.17
2023-02-11T10:52:22.660Z,39.97
2023-02-11T10:55:09.809Z,43.15
2023-02-11T10:57:46.713Z,46.00
2023-02-11T11:00:22.912Z,48.63
2023-02-11T11:02:59.606Z,44.97
2023-02-11T11:05:32.070Z,47.70
2023-02-11T11:08:09.823Z,39.03
2023-02-11T11:10:47.061Z,40.72
2023-02-11T11:13:33.562Z,38.80
2023-02-11T11:16:12.965Z,38.00
2023-02-11T11:18:52.987Z,38.35
2023-02-11T11:21:25.400Z,35.72
2023-02-11T11:23:58.781Z,32.47
2023-02-11T11:26:43.336Z,37.47
2023-02-11T11:29:30.026Z,40.80
2023-02-11T11:32:01.291Z,39.95
2023-02-11T11:34:31.797Z,40.70
2023-02-11T11:37:00.442Z,40.47
2023-02-11T11:39:31.432Z,50.28
2023-02-11T11:42:04.330Z,47.70
2023-02-11T11:44:37.174Z,46.00
2023-02-11T11:47:29.113Z,43.58
2023-02-11T11:49:57.024Z,42.70
2023-02-11T11:52:42.930Z,44.70
2023-02-11T11:55:21.753Z,38.17
2023-02-11T11:57:51.544Z,42.03
2023-02-11T12:00:28.277Z,45.40
2023-02-11T12:03:14.301Z,49.78
2023-02-11T12:05:41.608Z,53.40
2023-02-11T12:08:36.438Z,51.83
2023-02-11T12:11:15.811Z,44.53
2023-02-11T12:13:49.536Z,46.22
2023-02-11T12:16:28.790Z,51.05
2023-02-11T12:19:26.780Z,37.97
2023-02-11T12:22:09.576Z,47.22
2023-02-11T12:25:08.642Z,34.25
2023-02-11T12:27:50.706Z,37.95
2023-02-11T12:30:36.281Z,29.40
2023-02-11T12:33:31.068Z,27.55
2023-02-11T12:36:23.972Z,27.65
2023-02-11T12:39:03.005Z,25.15
2023-02-11T12:42:21.027Z,20.13
2023-02-11T12:45:09.177Z,31.15
2023-02-11T12:48:17.474Z,44.38
2023-02-11T12:50:55.269Z,38.20
2023-02-11T12:53:59.602Z,29.08
2023-02-11T12:56:53.750Z,21.80
2023-02-11T12:59:56.640Z,32.30
2023-02-11T13:02:43.423Z,25.00
2023-02-11T13:05:27.908Z,20.40
2023-02-11T13:08:06.008Z,17.52
2023-02-11T13:10:36.900Z,21.58
2023-02-11T13:13:24.276Z,24.20
2023-02-11T13:16:16.963Z,21.90
2023-02-11T13:19:00.902Z,21.33
2023-02-11T13:21:34.652Z,20.45
2023-02-11T13:24:23.702Z,22.27
2023-02-11T13:27:07.101Z,20.63
2023-02-11T13:30:12.860Z,18.45
2023-02-11T13:32:57.866Z,15.23
2023-02-11T13:35:31.730Z,32.20
2023-02-11T13:38:22.235Z,32.22
2023-02-11T13:41:16.668Z,26.63
2023-02-11T13:43:44.584Z,27.83
2023-02-11T13:46:14.746Z,18.77
2023-02-11T13:48:53.335Z,20.65
2023-02-11T13:51:42.178Z,20.10
2023-02-11T13:54:22.563Z,20.90
2023-02-11T13:57:21.688Z,16.65
2023-02-11T14:00:11.695Z,18.88
2023-02-11T14:02:57.707Z,17.63
2023-02-11T14:05:47.553Z,17.52
2023-02-11T14:08:40.193Z,18.60
2023-02-11T14:11:29.201Z,23.83
2023-02-11T14:14:23.939Z,16.80
2023-02-11T14:17:02.495Z,19.05
2023-02-11T14:19:35.999Z,18.52
2023-02-11T14:22:11.914Z,16.08
2023-02-11T14:24:39.289Z,17.38
2023-02-11T14:27:32.868Z,15.18
2023-02-11T14:30:09.020Z,48.28
2023-02-11T14:33:02.573Z,18.80
2023-02-11T14:35:41.765Z,30.73
2023-02-11T14:38:42.367Z,20.80
2023-02-11T14:41:36.025Z,30.75
2023-02-11T14:44:19.632Z,23.65
2023-02-11T14:46:49.102Z,33.53
2023-02-11T14:49:27.081Z,23.25
2023-02-11T14:51:59.858Z,18.13
2023-02-11T14:54:28.853Z,19.10
2023-02-11T14:57:25.658Z,17.00
2023-02-11T15:00:04.393Z,19.77
2023-02-11T15:02:37.483Z,18.20
2023-02-11T15:05:26.447Z,19.73
2023-02-11T15:07:56.690Z,26.33
2023-02-11T15:10:35.167Z,28.40
2023-02-11T15:13:04.772Z,16.20
2023-02-11T15:15:33.271Z,19.55
2023-02-11T15:18:02.750Z,19.73
2023-02-11T15:20:32.401Z,18.00
2023-02-11T15:23:08.306Z,20.48
2023-02-11T15:25:44.118Z,16.67
2023-02-11T15:28:23.785Z,16.15
2023-02-11T15:31:05.380Z,18.52
2023-02-11T15:33:33.174Z,20.20
2023-02-11T15:36:02.688Z,24.25
2023-02-11T15:38:30.562Z,21.13
2023-02-11T15:41:01.050Z,17.48
2023-02-11T15:43:50.725Z,22.05
2023-02-11T15:46:21.874Z,24.00
2023-02-11T15:48:53.177Z,16.52
2023-02-11T15:51:29.515Z,17.33
2023-02-11T15:54:00.294Z,21.08
2023-02-11T15:56:43.452Z,19.70
2023-02-11T15:59:25.961Z,29.52
2023-02-11T16:01:54.788Z,53.13
2023-02-11T16:04:25.578Z,38.72
2023-02-11T16:06:55.531Z,27.63
2023-02-11T16:09:41.166Z,31.73
2023-02-11T16:12:26.419Z,29.95
2023-02-11T16:14:53.763Z,35.78
2023-02-11T16:17:29.432Z,26.17
2023-02-11T16:19:56.809Z,17.92
2023-02-11T16:22:29.988Z,20.58
2023-02-11T16:24:59.935Z,24.38
2023-02-11T16:27:32.099Z,16.85
2023-02-11T16:29:59.789Z,19.05
2023-02-11T16:32:28.753Z,22.10
2023-02-11T16:35:00.691Z,25.17
2023-02-11T16:37:27.857Z,22.90
2023-02-11T16:39:57.895Z,20.58
2023-02-11T16:42:25.244Z,24.95
2023-02-11T16:44:52.827Z,25.92
2023-02-11T16:47:25.110Z,28.38
2023-02-11T16:49:52.946Z,31.90
2023-02-11T16:52:24.378Z,26.88
2023-02-11T16:54:51.977Z,22.58
2023-02-11T16:57:23.451Z,24.05
2023-02-11T16:59:51.600Z,20.05
2023-02-11T17:02:23.793Z,22.65
2023-02-11T17:04:53.830Z,72.57
2023-02-11T17:07:21.428Z,37.42
2023-02-11T17:09:48.745Z,35.00
2023-02-11T17:12:18.656Z,39.90
2023-02-11T17:14:46.020Z,29.23
2023-02-11T17:17:13.955Z,25.08
2023-02-11T17:19:41.285Z,26.08
2023-02-11T17:22:10.744Z,22.60
2023-02-11T17:24:38.121Z,39.65
2023-02-11T17:27:05.516Z,36.30
2023-02-11T17:29:32.832Z,23.95
2023-02-11T17:32:00.262Z,23.27
2023-02-11T17:34:29.247Z,23.85
2023-02-11T17:36:58.015Z,22.35
2023-02-11T17:39:29.061Z,18.45
2023-02-11T17:41:56.374Z,33.00
2023-02-11T17:44:23.643Z,33.38
2023-02-11T17:46:50.922Z,27.65
2023-02-11T17:49:18.496Z,28.13
2023-02-11T17:51:45.915Z,32.67
2023-02-11T17:54:18.434Z,46.05
2023-02-11T17:56:45.800Z,50.95
2023-02-11T17:59:13.796Z,47.47
2023-02-11T18:01:42.709Z,102.63
2023-02-11T18:04:17.636Z,100.13
2023-02-11T18:06:44.793Z,114.90
2023-02-11T18:09:12.840Z,81.60
2023-02-11T18:11:40.200Z,140.43
2023-02-11T18:14:10.546Z,151.90
2023-02-11T18:16:40.358Z,82.43
2023-02-11T18:19:07.896Z,117.97
2023-02-11T18:21:35.807Z,38.13
2023-02-11T18:24:07.801Z,26.98
2023-02-11T18:26:35.641Z,22.30
2023-02-11T18:29:07.075Z,37.92
2023-02-11T18:31:38.100Z,29.38
2023-02-11T18:34:10.751Z,28.40
2023-02-11T18:36:37.972Z,22.10
2023-02-11T18:39:05.968Z,20.85
2023-02-11T18:41:33.383Z,22.42
2023-02-11T18:44:03.017Z,27.95
2023-02-11T18:46:31.333Z,26.15
2023-02-11T18:48:59.062Z,22.83
2023-02-11T18:51:26.501Z,26.02
2023-02-11T18:53:54.660Z,33.67
2023-02-11T18:56:23.715Z,30.90
2023-02-11T18:58:52.083Z,19.00
2023-02-11T19:01:22.862Z,16.30
2023-02-11T19:03:50.714Z,14.85
2023-02-11T19:06:21.049Z,14.65
2023-02-11T19:08:48.377Z,11.23
2023-02-11T19:11:17.937Z,9.77
2023-02-11T19:13:47.875Z,7.80
2023-02-11T19:16:16.951Z,6.55
2023-02-11T19:18:44.634Z,5.82
2023-02-11T19:21:13.315Z,9.70
2023-02-11T19:23:40.619Z,8.57
2023-02-11T19:26:07.630Z,6.75
2023-02-11T19:28:37.073Z,4.45
2023-02-11T19:31:08.898Z,5.88
2023-02-11T19:33:36.674Z,5.35
2023-02-11T19:36:05.775Z,3.28
2023-02-11T19:38:35.170Z,4.00
2023-02-11T19:41:02.229Z,2.60
2023-02-11T19:43:29.548Z,2.85
2023-02-11T19:45:57.652Z,2.45
2023-02-11T19:48:25.643Z,1.77
2023-02-11T19:50:52.915Z,2.63
2023-02-11T19:53:21.166Z,7.78
2023-02-11T19:55:48.814Z,2.38
2023-02-11T19:58:17.281Z,2.30
2023-02-11T20:00:44.463Z,2.80
2023-02-11T20:03:11.907Z,2.85
2023-02-11T20:05:47.011Z,2.60
2023-02-11T20:08:17.125Z,2.60
2023-02-11T20:10:44.473Z,2.33
2023-02-11T20:13:12.081Z,2.72
2023-02-11T20:15:39.746Z,2.08
2023-02-11T20:18:07.277Z,3.05
2023-02-11T20:20:34.377Z,2.10
2023-02-11T20:23:01.636Z,3.40
2023-02-11T20:25:28.758Z,2.65
2023-02-11T20:27:58.338Z,1.10
2023-02-11T20:30:25.505Z,12.45
2023-02-11T20:32:52.898Z,9.88
2023-02-11T20:35:20.353Z,13.05
2023-02-11T20:37:48.053Z,2.78
2023-02-11T20:40:15.517Z,2.55
2023-02-11T20:42:43.173Z,2.22
2023-02-11T20:45:10.471Z,1.73
2023-02-11T20:47:42.405Z,2.83
2023-02-11T20:50:10.038Z,2.00
2023-02-11T20:52:37.472Z,1.73
2023-02-11T20:55:04.820Z,12.52
2023-02-11T20:57:35.095Z,2.72
2023-02-11T21:00:03.123Z,15.02
2023-02-11T21:02:30.959Z,13.05
2023-02-11T21:04:58.000Z,1.80
2023-02-11T21:07:28.140Z,2.70
2023-02-11T21:09:55.261Z,5.03
2023-02-11T21:12:23.054Z,6.68
2023-02-11T21:14:50.184Z,8.85
2023-02-11T21:17:17.594Z,5.13
2023-02-11T21:19:44.590Z,5.97
2023-02-11T21:22:12.251Z,7.57
2023-02-11T21:24:39.765Z,9.65
2023-02-11T21:27:07.173Z,77.50
2023-02-11T21:29:45.756Z,29.55
2023-02-11T21:34:50.199Z,20.55
2023-02-11T21:37:17.937Z,15.57
2023-02-11T21:39:45.449Z,20.25
2023-02-11T21:42:13.154Z,14.45
2023-02-11T21:44:40.308Z,11.45
2023-02-11T21:47:10.554Z,21.88
2023-02-11T21:49:38.310Z,22.90
2023-02-11T21:52:05.772Z,32.00
2023-02-11T21:54:32.983Z,16.80
2023-02-11T21:57:03.029Z,10.80
2023-02-11T21:59:32.937Z,22.45
2023-02-11T22:02:00.387Z,19.05
2023-02-11T22:04:28.004Z,11.18
2023-02-11T22:06:55.897Z,21.27
2023-02-11T22:09:23.511Z,16.60
2023-02-11T22:11:50.978Z,14.73
2023-02-11T22:14:20.082Z,12.32
2023-02-11T22:16:51.099Z,9.23
2023-02-11T22:19:18.939Z,19.77
2023-02-11T22:21:47.693Z,11.60
2023-02-11T22:24:14.947Z,13.57
2023-02-11T22:26:44.806Z,11.57
2023-02-11T22:29:12.483Z,13.68
2023-02-11T22:31:42.563Z,14.82
2023-02-11T22:34:09.655Z,12.50
2023-02-11T22:36:39.395Z,8.50
2023-02-11T22:39:11.081Z,14.48
2023-02-11T22:41:40.662Z,25.70
2023-02-11T22:44:08.211Z,19.98
2023-02-11T22:46:36.174Z,9.65
2023-02-11T22:49:03.676Z,10.45
2023-02-11T22:51:31.607Z,11.23
2023-02-11T22:54:01.459Z,12.45
2023-02-11T22:56:30.995Z,12.52
2023-02-11T22:58:59.490Z,11.25
2023-02-11T23:01:28.456Z,16.63
2023-02-11T23:03:56.250Z,8.43
2023-02-11T23:06:25.792Z,12.68
2023-02-11T23:08:52.927Z,7.90
2023-02-11T23:11:25.929Z,12.30
2023-02-11T23:13:54.028Z,9.40
2023-02-11T23:16:26.568Z,8.52
2023-02-11T23:18:53.921Z,5.75
2023-02-11T23:21:28.078Z,7.82
2023-02-11T23:24:01.523Z,4.55
2023-02-11T23:26:29.386Z,4.53
2023-02-11T23:28:56.980Z,4.95
2023-02-11T23:31:27.682Z,4.88
2023-02-11T23:33:55.335Z,5.18
2023-02-11T23:36:23.661Z,5.70
2023-02-11T23:38:51.036Z,5.18
2023-02-11T23:41:19.778Z,4.97
2023-02-11T23:43:55.738Z,4.60
2023-02-11T23:46:24.111Z,3.80
2023-02-11T23:48:52.197Z,4.03
2023-02-11T23:51:20.013Z,4.57
2023-02-11T23:53:49.286Z,15.48
2023-02-11T23:56:22.667Z,7.40
2023-02-11T23:58:51.272Z,7.25
